createdAt,value
2023-04-04T00:02:20.131Z,93.40
2023-04-04T00:07:25.496Z,93.90
2023-04-04T00:12:30.712Z,94.30
2023-04-04T00:17:35.918Z,94.50
2023-04-04T00:22:41.563Z,94.20
2023-04-04T00:27:46.741Z,94.90
2023-04-04T00:32:52.203Z,94.80
2023-04-04T00:37:57.323Z,95.70
2023-04-04T00:43:03.427Z,96.00
2023-04-04T00:48:09.129Z,96.30
2023-04-04T00:53:14.711Z,96.10
2023-04-04T00:58:19.992Z,96.20
2023-04-04T01:03:25.350Z,96.60
2023-04-04T01:08:31.874Z,96.80
2023-04-04T01:13:37.261Z,96.60
2023-04-04T01:18:43.678Z,96.80
2023-04-04T01:23:54.664Z,96.80
2023-04-04T01:29:00.947Z,96.80
2023-04-04T01:34:27.596Z,96.40
2023-04-04T01:39:50.205Z,96.40
2023-04-04T01:44:59.527Z,96.40
2023-04-04T01:50:05.434Z,96.20
2023-04-04T01:55:11.363Z,96.10
2023-04-04T02:00:17.871Z,96.20
2023-04-04T02:05:23.770Z,96.30
2023-04-04T02:10:30.149Z,96.10
2023-04-04T02:15:35.897Z,94.50
2023-04-04T02:20:41.426Z,94.70
2023-04-04T02:25:47.082Z,94.10
2023-04-04T02:30:52.347Z,93.80
2023-04-04T02:36:01.245Z,93.60
2023-04-04T02:41:06.418Z,94.40
2023-04-04T02:46:21.177Z,94.00
2023-04-04T02:51:19.022Z,93.70
2023-04-04T02:56:24.228Z,93.60
2023-04-04T03:01:29.338Z,93.50
2023-04-04T03:06:34.740Z,93.70
2023-04-04T03:11:39.808Z,94.00
2023-04-04T03:16:45.329Z,94.40
2023-04-04T03:21:50.643Z,94.50
2023-04-04T03:26:55.788Z,93.60
2023-04-04T03:32:01.206Z,93.00
2023-04-04T03:37:06.908Z,92.20
2023-04-04T03:42:12.393Z,91.10
2023-04-04T03:47:17.542Z,90.80
2023-04-04T03:52:22.624Z,90.70
2023-04-04T03:57:28.883Z,90.50
2023-04-04T04:02:34.173Z,90.50
2023-04-04T04:07:39.569Z,91.00
2023-04-04T04:12:44.737Z,90.20
2023-04-04T04:17:50.011Z,89.10
2023-04-04T04:22:55.448Z,86.40
2023-04-04T04:28:00.592Z,85.20
2023-04-04T04:33:05.732Z,85.00
2023-04-04T04:38:10.988Z,83.10
2023-04-04T04:43:16.094Z,83.60
2023-04-04T04:48:21.340Z,83.60
2023-04-04T04:53:26.633Z,83.20
2023-04-04T04:58:32.130Z,82.20
2023-04-04T05:03:37.174Z,82.70
2023-04-04T05:08:42.603Z,82.20
2023-04-04T05:13:47.669Z,82.10
2023-04-04T05:18:52.741Z,82.30
2023-04-04T05:23:58.986Z,81.60
2023-04-04T05:29:04.197Z,80.30
2023-04-04T05:34:09.338Z,79.90
2023-04-04T05:39:14.945Z,81.20
2023-04-04T05:44:20.112Z,78.90
2023-04-04T05:49:25.636Z,80.40
2023-04-04T05:54:30.869Z,82.70
2023-04-04T05:59:36.829Z,80.20
2023-04-04T06:04:41.962Z,79.50
2023-04-04T06:09:47.044Z,80.40
2023-04-04T06:14:52.146Z,80.40
2023-04-04T06:19:57.235Z,80.80
2023-04-04T06:25:02.504Z,81.00
2023-04-04T06:30:11.709Z,79.30
2023-04-04T06:35:18.186Z,80.60
2023-04-04T06:40:24.256Z,79.80
2023-04-04T06:45:31.605Z,80.60
2023-04-04T06:50:37.916Z,81.30
2023-04-04T06:55:43.635Z,81.30
2023-04-04T07:00:48.885Z,82.30
2023-04-04T07:05:54.066Z,81.10
2023-04-04T07:11:00.533Z,81.60
2023-04-04T07:16:05.839Z,82.30
2023-04-04T07:21:10.990Z,80.50
2023-04-04T07:26:16.192Z,80.80
2023-04-04T07:31:21.461Z,80.70
2023-04-04T07:36:26.728Z,81.70
2023-04-04T07:41:32.121Z,79.80
2023-04-04T07:46:38.327Z,79.10
2023-04-04T07:51:43.491Z,81.70
2023-04-04T07:56:48.607Z,78.30
2023-04-04T08:01:54.225Z,77.40
2023-04-04T08:06:59.274Z,77.50
2023-04-04T08:12:06.852Z,78.00
2023-04-04T08:17:16.331Z,74.90
2023-04-04T08:22:22.440Z,76.00
2023-04-04T08:27:27.751Z,75.50
2023-04-04T08:32:32.858Z,77.90
2023-04-04T08:37:38.776Z,77.10
2023-04-04T08:42:45.812Z,75.10
2023-04-04T08:47:53.447Z,76.40
2023-04-04T08:53:01.915Z,76.10
2023-04-04T08:58:07.191Z,70.50
2023-04-04T09:03:18.632Z,69.60
2023-04-04T09:08:25.126Z,70.30
2023-04-04T09:13:30.761Z,68.20
2023-04-04T09:18:35.883Z,71.60
2023-04-04T09:23:41.021Z,65.80
2023-04-04T09:28:49.286Z,63.70
2023-04-04T09:33:58.095Z,67.20
2023-04-04T09:39:06.504Z,59.00
2023-04-04T09:44:15.152Z,57.40
2023-04-04T09:49:23.039Z,59.60
2023-04-04T09:54:30.234Z,62.00
2023-04-04T09:59:35.765Z,63.20
2023-04-04T10:04:41.101Z,63.00
2023-04-04T10:09:49.812Z,63.80
2023-04-04T10:14:59.793Z,64.00
2023-04-04T10:20:06.983Z,63.30
2023-04-04T10:25:13.501Z,65.20
2023-04-04T10:30:18.559Z,63.30
2023-04-04T10:35:25.260Z,63.30
2023-04-04T10:40:36.001Z,64.20
2023-04-04T10:45:46.846Z,62.10
2023-04-04T10:50:52.424Z,61.60
2023-04-04T10:55:57.974Z,64.10
2023-04-04T11:01:03.466Z,62.00
2023-04-04T11:06:11.771Z,60.80
2023-04-04T11:11:22.745Z,65.10
2023-04-04T11:16:25.328Z,69.60
2023-04-04T11:21:33.320Z,70.50
2023-04-04T11:26:42.922Z,72.80
2023-04-04T11:31:51.676Z,70.90
2023-04-04T11:36:58.343Z,71.50
2023-04-04T11:42:17.410Z,72.70
2023-04-04T11:47:25.179Z,70.30
2023-04-04T11:52:36.627Z,66.10
2023-04-04T11:57:44.317Z,67.30
2023-04-04T12:02:52.407Z,65.50
2023-04-04T12:07:58.681Z,62.80
2023-04-04T12:13:08.946Z,64.80
2023-04-04T12:18:17.100Z,58.50
2023-04-04T12:23:23.847Z,60.00
2023-04-04T12:28:29.315Z,58.00
2023-04-04T12:33:34.853Z,60.20
2023-04-04T12:39:15.058Z,59.50
2023-04-04T12:44:37.803Z,59.70
2023-04-04T12:49:54.972Z,63.00
2023-04-04T12:55:08.114Z,58.70
2023-04-04T13:00:11.942Z,60.00
2023-04-04T13:05:22.413Z,59.70
2023-04-04T13:10:28.448Z,61.90
2023-04-04T13:15:52.567Z,60.90
2023-04-04T13:20:59.618Z,60.90
2023-04-04T13:26:05.393Z,60.60
2023-04-04T13:31:12.010Z,64.00
2023-04-04T13:36:18.470Z,60.10
2023-04-04T13:41:25.492Z,62.10
2023-04-04T13:46:31.672Z,62.50
2023-04-04T13:51:37.700Z,60.00
2023-04-04T13:56:42.913Z,57.40
2023-04-04T14:01:48.215Z,58.40
2023-04-04T14:06:53.730Z,59.10
2023-04-04T14:11:58.846Z,61.40
2023-04-04T14:17:04.181Z,62.00
2023-04-04T14:22:09.520Z,60.70
2023-04-04T14:27:14.842Z,59.70
2023-04-04T14:32:26.188Z,61.70
2023-04-04T14:37:33.051Z,60.90
2023-04-04T14:42:38.235Z,63.00
2023-04-04T14:47:43.438Z,59.30
2023-04-04T14:52:52.964Z,58.30
2023-04-04T14:58:02.494Z,59.60
2023-04-04T15:03:08.525Z,57.60
2023-04-04T15:08:17.065Z,58.20
2023-04-04T15:13:25.782Z,59.40
2023-04-04T15:18:32.041Z,58.20
2023-04-04T15:23:37.122Z,61.10
2023-04-04T15:28:42.430Z,62.20
2023-04-04T15:33:48.762Z,63.20
2023-04-04T15:38:54.228Z,64.40
2023-04-04T15:44:00.136Z,63.30
2023-04-04T15:49:06.081Z,64.00
2023-04-04T15:54:13.798Z,64.70
2023-04-04T15:59:19.130Z,66.00
2023-04-04T16:04:24.656Z,66.30
2023-04-04T16:09:33.758Z,68.40
2023-04-04T16:14:39.032Z,68.10
2023-04-04T16:19:44.196Z,66.40
2023-04-04T16:24:49.556Z,67.50
2023-04-04T16:29:54.707Z,67.30
2023-04-04T16:34:59.784Z,63.50
2023-04-04T16:40:07.232Z,65.00
2023-04-04T16:45:13.081Z,63.20
2023-04-04T16:50:18.249Z,67.20
2023-04-04T16:55:25.139Z,71.80
2023-04-04T17:00:32.289Z,73.50
2023-04-04T17:05:37.585Z,75.00
2023-04-04T17:10:43.757Z,75.00
2023-04-04T17:15:51.864Z,75.40
2023-04-04T17:20:57.183Z,74.80
2023-04-04T17:26:02.514Z,75.90
2023-04-04T17:31:08.419Z,76.30
2023-04-04T17:36:13.744Z,77.00
2023-04-04T17:41:18.973Z,77.80
2023-04-04T17:46:25.129Z,76.90
2023-04-04T17:51:30.417Z,77.10
2023-04-04T17:56:36.367Z,77.00
2023-04-04T18:01:42.056Z,77.40
2023-04-04T18:06:48.080Z,78.10
2023-04-04T18:11:53.472Z,78.10
2023-04-04T18:16:59.161Z,78.40
2023-04-04T18:22:04.445Z,78.80
2023-04-04T18:27:12.245Z,78.70
2023-04-04T18:32:18.268Z,77.90
2023-04-04T18:37:23.603Z,78.50
2023-04-04T18:42:28.892Z,78.80
2023-04-04T18:47:34.073Z,78.90
2023-04-04T18:52:39.278Z,79.50
2023-04-04T18:57:46.495Z,81.00
2023-04-04T19:02:51.878Z,81.10
2023-04-04T19:07:59.127Z,81.70
2023-04-04T19:13:04.329Z,81.90
2023-04-04T19:18:09.787Z,82.50
2023-04-04T19:23:15.585Z,82.90
2023-04-04T19:28:21.013Z,82.90
2023-04-04T19:33:27.811Z,84.10
2023-04-04T19:38:36.007Z,84.00
2023-04-04T19:43:45.204Z,85.00
2023-04-04T19:48:52.454Z,85.70
2023-04-04T19:53:59.702Z,85.90
2023-04-04T19:59:08.979Z,86.00
2023-04-04T20:04:13.057Z,86.70
2023-04-04T20:09:36.768Z,87.20
2023-04-04T20:14:42.364Z,87.80
2023-04-04T20:19:48.596Z,88.60
2023-04-04T20:24:53.859Z,88.80
2023-04-04T20:29:58.960Z,89.80
2023-04-04T20:35:05.674Z,90.80
2023-04-04T20:40:14.946Z,91.00
2023-04-04T20:45:32.983Z,91.50
2023-04-04T20:50:44.103Z,91.80
2023-04-04T20:55:50.765Z,92.10
2023-04-04T21:00:59.736Z,92.80
2023-04-04T21:06:16.405Z,93.10
2023-04-04T21:11:29.268Z,93.30
2023-04-04T21:16:36.045Z,93.60
2023-04-04T21:21:42.357Z,93.80
2023-04-04T21:26:48.889Z,94.10
2023-04-04T21:31:56.110Z,94.40
2023-04-04T21:37:05.855Z,94.60
2023-04-04T21:42:11.041Z,96.10
2023-04-04T21:47:16.223Z,99.30
2023-04-04T21:52:21.331Z,99.70
2023-04-04T21:57:26.458Z,99.90
2023-04-04T22:02:32.160Z,99.90
2023-04-04T22:07:37.679Z,99.90
2023-04-04T22:12:42.846Z,99.90
2023-04-04T22:17:49.660Z,99.90
2023-04-04T22:22:55.254Z,99.90
2023-04-04T22:28:04.202Z,99.90
2023-04-04T22:33:10.126Z,99.90
2023-04-04T22:38:15.181Z,99.90
2023-04-04T22:43:22.147Z,99.90
2023-04-04T22:48:28.980Z,99.90
2023-04-04T22:53:34.125Z,99.90
2023-04-04T22:58:39.793Z,99.90
2023-04-04T23:03:45.365Z,99.90
2023-04-04T23:08:51.480Z,99.90
2023-04-04T23:13:57.197Z,99.90
2023-04-04T23:19:03.382Z,99.90
2023-04-04T23:24:08.863Z,99.90
2023-04-04T23:29:14.669Z,99.90
2023-04-04T23:34:19.730Z,99.90
2023-04-04T23:39:24.934Z,99.90
2023-04-04T23:44:30.085Z,99.90
2023-04-04T23:49:35.415Z,99.90
2023-04-04T23:54:40.558Z,99.90
2023-04-04T23:59:45.753Z,99.90
